sensor_id;sensor_type;location;lat;lon;timestamp;P1;durP1;ratioP1;P2;durP2;ratioP2
71655;SDS011;59497;48.798;8.816;2023-12-20T00:00:51;2.10;;;1.50;;
71655;SDS011;59497;48.798;8.816;2023-12-20T00:03:16;3.20;;;1.97;;
71655;SDS011;59497;48.798;8.816;2023-12-20T00:05:42;2.10;;;1.27;;
71655;SDS011;59497;48.798;8.816;2023-12-20T00:08:07;1.50;;;0.93;;
71655;SDS011;59497;48.798;8.816;2023-12-20T00:10:32;2.77;;;1.10;;
71655;SDS011;59497;48.798;8.816;2023-12-20T00:12:57;2.97;;;1.30;;
71655;SDS011;59497;48.798;8.816;2023-12-20T00:15:22;2.03;;;1.50;;
71655;SDS011;59497;48.798;8.816;2023-12-20T00:17:48;2.37;;;1.17;;
71655;SDS011;59497;48.798;8.816;2023-12-20T00:20:13;4.30;;;1.30;;
71655;SDS011;59497;48.798;8.816;2023-12-20T00:22:38;2.90;;;1.63;;
71655;SDS011;59497;48.798;8.816;2023-12-20T00:25:03;2.63;;;1.67;;
71655;SDS011;59497;48.798;8.816;2023-12-20T00:27:29;2.07;;;1.20;;
71655;SDS011;59497;48.798;8.816;2023-12-20T00:29:54;3.97;;;1.70;;
71655;SDS011;59497;48.798;8.816;2023-12-20T00:32:20;2.70;;;1.53;;
71655;SDS011;59497;48.798;8.816;2023-12-20T00:34:45;2.97;;;1.60;;
71655;SDS011;59497;48.798;8.816;2023-12-20T00:37:10;2.50;;;1.30;;
71655;SDS011;59497;48.798;8.816;2023-12-20T00:39:35;2.43;;;1.30;;
71655;SDS011;59497;48.798;8.816;2023-12-20T00:42:00;2.40;;;1.33;;
71655;SDS011;59497;48.798;8.816;2023-12-20T00:44:26;3.03;;;1.40;;
71655;SDS011;59497;48.798;8.816;2023-12-20T00:46:51;3.20;;;1.25;;
71655;SDS011;59497;48.798;8.816;2023-12-20T00:49:16;2.33;;;1.53;;
71655;SDS011;59497;48.798;8.816;2023-12-20T00:51:41;3.10;;;1.60;;
71655;SDS011;59497;48.798;8.816;2023-12-20T00:54:07;2.67;;;1.50;;
71655;SDS011;59497;48.798;8.816;2023-12-20T00:56:32;2.03;;;1.03;;
71655;SDS011;59497;48.798;8.816;2023-12-20T00:58:57;1.43;;;0.90;;
71655;SDS011;59497;48.798;8.816;2023-12-20T01:01:22;1.23;;;0.40;;
71655;SDS011;59497;48.798;8.816;2023-12-20T01:03:47;0.40;;;0.17;;
71655;SDS011;59497;48.798;8.816;2023-12-20T01:06:13;0.40;;;0.27;;
71655;SDS011;59497;48.798;8.816;2023-12-20T01:08:38;0.30;;;0.30;;
71655;SDS011;59497;48.798;8.816;2023-12-20T01:11:04;0.50;;;0.43;;
71655;SDS011;59497;48.798;8.816;2023-12-20T01:13:30;0.40;;;0.20;;
71655;SDS011;59497;48.798;8.816;2023-12-20T01:15:55;0.40;;;0.33;;
71655;SDS011;59497;48.798;8.816;2023-12-20T01:18:20;0.43;;;0.30;;
71655;SDS011;59497;48.798;8.816;2023-12-20T01:20:45;1.00;;;0.30;;
71655;SDS011;59497;48.798;8.816;2023-12-20T01:23:11;0.50;;;0.07;;
71655;SDS011;59497;48.798;8.816;2023-12-20T01:25:36;0.40;;;0.40;;
71655;SDS011;59497;48.798;8.816;2023-12-20T01:28:01;0.30;;;0.30;;
71655;SDS011;59497;48.798;8.816;2023-12-20T01:30:28;0.28;;;0.28;;
71655;SDS011;59497;48.798;8.816;2023-12-20T01:32:53;0.27;;;0.20;;
71655;SDS011;59497;48.798;8.816;2023-12-20T01:35:19;0.30;;;0.20;;
71655;SDS011;59497;48.798;8.816;2023-12-20T01:37:44;0.10;;;0.10;;
71655;SDS011;59497;48.798;8.816;2023-12-20T01:40:09;0.20;;;0.00;;
71655;SDS011;59497;48.798;8.816;2023-12-20T01:42:35;0.33;;;0.10;;
71655;SDS011;59497;48.798;8.816;2023-12-20T01:45:00;0.10;;;0.10;;
71655;SDS011;59497;48.798;8.816;2023-12-20T01:47:25;0.10;;;0.10;;
71655;SDS011;59497;48.798;8.816;2023-12-20T01:49:52;0.65;;;0.10;;
71655;SDS011;59497;48.798;8.816;2023-12-20T01:52:17;0.17;;;0.17;;
71655;SDS011;59497;48.798;8.816;2023-12-20T01:54:42;0.10;;;0.10;;
71655;SDS011;59497;48.798;8.816;2023-12-20T01:57:08;0.10;;;0.10;;
71655;SDS011;59497;48.798;8.816;2023-12-20T01:59:34;0.20;;;0.20;;
71655;SDS011;59497;48.798;8.816;2023-12-20T02:01:59;0.10;;;0.10;;
71655;SDS011;59497;48.798;8.816;2023-12-20T02:04:25;0.17;;;0.13;;
71655;SDS011;59497;48.798;8.816;2023-12-20T02:06:52;1.10;;;0.10;;
71655;SDS011;59497;48.798;8.816;2023-12-20T02:09:17;0.10;;;0.10;;
71655;SDS011;59497;48.798;8.816;2023-12-20T02:11:43;0.20;;;0.20;;
71655;SDS011;59497;48.798;8.816;2023-12-20T02:14:08;0.38;;;0.10;;
71655;SDS011;59497;48.798;8.816;2023-12-20T02:16:33;0.20;;;0.13;;
71655;SDS011;59497;48.798;8.816;2023-12-20T02:18:58;0.10;;;0.10;;
71655;SDS011;59497;48.798;8.816;2023-12-20T02:21:33;0.40;;;0.20;;
71655;SDS011;59497;48.798;8.816;2023-12-20T02:24:00;0.20;;;0.20;;
71655;SDS011;59497;48.798;8.816;2023-12-20T02:26:25;0.10;;;0.08;;
71655;SDS011;59497;48.798;8.816;2023-12-20T02:28:50;0.10;;;0.10;;
71655;SDS011;59497;48.798;8.816;2023-12-20T02:31:15;0.10;;;0.10;;
71655;SDS011;59497;48.798;8.816;2023-12-20T02:33:41;0.20;;;0.10;;
71655;SDS011;59497;48.798;8.816;2023-12-20T02:36:07;0.20;;;0.20;;
71655;SDS011;59497;48.798;8.816;2023-12-20T02:38:32;0.00;;;0.00;;
71655;SDS011;59497;48.798;8.816;2023-12-20T02:40:58;0.50;;;0.10;;
71655;SDS011;59497;48.798;8.816;2023-12-20T02:43:24;0.27;;;0.27;;
71655;SDS011;59497;48.798;8.816;2023-12-20T02:45:49;0.27;;;0.07;;
71655;SDS011;59497;48.798;8.816;2023-12-20T02:48:14;0.10;;;0.10;;
71655;SDS011;59497;48.798;8.816;2023-12-20T02:50:39;0.20;;;0.20;;
71655;SDS011;59497;48.798;8.816;2023-12-20T02:53:05;0.10;;;0.10;;
71655;SDS011;59497;48.798;8.816;2023-12-20T02:55:30;0.20;;;0.10;;
71655;SDS011;59497;48.798;8.816;2023-12-20T02:57:55;0.20;;;0.03;;
71655;SDS011;59497;48.798;8.816;2023-12-20T03:00:20;0.20;;;0.20;;
71655;SDS011;59497;48.798;8.816;2023-12-20T03:02:46;0.10;;;0.10;;
71655;SDS011;59497;48.798;8.816;2023-12-20T03:05:11;0.10;;;0.10;;
71655;SDS011;59497;48.798;8.816;2023-12-20T03:07:36;0.20;;;0.10;;
71655;SDS011;59497;48.798;8.816;2023-12-20T03:10:02;0.40;;;0.10;;
71655;SDS011;59497;48.798;8.816;2023-12-20T03:12:28;0.25;;;0.10;;
71655;SDS011;59497;48.798;8.816;2023-12-20T03:14:53;0.10;;;0.10;;
71655;SDS011;59497;48.798;8.816;2023-12-20T03:17:18;0.10;;;0.10;;
71655;SDS011;59497;48.798;8.816;2023-12-20T03:19:44;0.20;;;0.10;;
71655;SDS011;59497;48.798;8.816;2023-12-20T03:22:09;0.20;;;0.20;;
71655;SDS011;59497;48.798;8.816;2023-12-20T03:24:35;0.10;;;0.10;;
71655;SDS011;59497;48.798;8.816;2023-12-20T03:27:00;0.10;;;0.10;;
71655;SDS011;59497;48.798;8.816;2023-12-20T03:29:25;0.10;;;0.07;;
71655;SDS011;59497;48.798;8.816;2023-12-20T03:31:50;0.00;;;0.00;;
71655;SDS011;59497;48.798;8.816;2023-12-20T03:34:15;0.10;;;0.00;;
71655;SDS011;59497;48.798;8.816;2023-12-20T03:36:41;0.10;;;0.10;;
71655;SDS011;59497;48.798;8.816;2023-12-20T03:39:06;0.10;;;0.10;;
71655;SDS011;59497;48.798;8.816;2023-12-20T03:41:31;0.10;;;0.10;;
71655;SDS011;59497;48.798;8.816;2023-12-20T03:43:56;0.10;;;0.10;;
71655;SDS011;59497;48.798;8.816;2023-12-20T03:46:22;0.10;;;0.00;;
71655;SDS011;59497;48.798;8.816;2023-12-20T03:48:47;0.37;;;0.10;;
71655;SDS011;59497;48.798;8.816;2023-12-20T03:51:12;0.07;;;0.00;;
71655;SDS011;59497;48.798;8.816;2023-12-20T03:53:37;0.10;;;0.00;;
71655;SDS011;59497;48.798;8.816;2023-12-20T03:56:03;0.10;;;0.10;;
71655;SDS011;59497;48.798;8.816;2023-12-20T03:58:28;0.17;;;0.10;;
71655;SDS011;59497;48.798;8.816;2023-12-20T04:00:53;0.10;;;0.10;;
71655;SDS011;59497;48.798;8.816;2023-12-20T04:03:19;0.67;;;0.00;;
71655;SDS011;59497;48.798;8.816;2023-12-20T04:05:44;0.10;;;0.10;;
71655;SDS011;59497;48.798;8.816;2023-12-20T04:08:09;0.17;;;0.13;;
71655;SDS011;59497;48.798;8.816;2023-12-20T04:10:35;0.17;;;0.10;;
71655;SDS011;59497;48.798;8.816;2023-12-20T04:13:00;0.20;;;0.10;;
71655;SDS011;59497;48.798;8.816;2023-12-20T04:15:25;1.30;;;0.20;;
71655;SDS011;59497;48.798;8.816;2023-12-20T04:17:50;0.40;;;0.10;;
71655;SDS011;59497;48.798;8.816;2023-12-20T04:20:16;0.10;;;0.10;;
71655;SDS011;59497;48.798;8.816;2023-12-20T04:22:41;0.10;;;0.10;;
71655;SDS011;59497;48.798;8.816;2023-12-20T04:25:07;0.30;;;0.13;;
71655;SDS011;59497;48.798;8.816;2023-12-20T04:27:32;0.40;;;0.10;;
71655;SDS011;59497;48.798;8.816;2023-12-20T04:29:58;0.10;;;0.10;;
71655;SDS011;59497;48.798;8.816;2023-12-20T04:32:23;0.10;;;0.10;;
71655;SDS011;59497;48.798;8.816;2023-12-20T04:34:48;0.10;;;0.07;;
71655;SDS011;59497;48.798;8.816;2023-12-20T04:37:13;0.10;;;0.00;;
71655;SDS011;59497;48.798;8.816;2023-12-20T04:39:39;0.10;;;0.10;;
71655;SDS011;59497;48.798;8.816;2023-12-20T04:42:05;0.85;;;0.30;;
71655;SDS011;59497;48.798;8.816;2023-12-20T04:44:31;0.23;;;0.10;;
71655;SDS011;59497;48.798;8.816;2023-12-20T04:46:56;0.10;;;0.10;;
71655;SDS011;59497;48.798;8.816;2023-12-20T04:49:21;0.10;;;0.00;;
71655;SDS011;59497;48.798;8.816;2023-12-20T04:51:46;0.20;;;0.20;;
71655;SDS011;59497;48.798;8.816;2023-12-20T04:54:12;0.30;;;0.10;;
71655;SDS011;59497;48.798;8.816;2023-12-20T04:56:38;1.27;;;0.10;;
71655;SDS011;59497;48.798;8.816;2023-12-20T04:59:04;0.23;;;0.17;;
71655;SDS011;59497;48.798;8.816;2023-12-20T05:01:29;0.20;;;0.10;;
71655;SDS011;59497;48.798;8.816;2023-12-20T05:03:54;1.17;;;0.23;;
71655;SDS011;59497;48.798;8.816;2023-12-20T05:06:20;2.57;;;1.30;;
71655;SDS011;59497;48.798;8.816;2023-12-20T05:08:45;7.10;;;3.80;;
71655;SDS011;59497;48.798;8.816;2023-12-20T05:11:10;2.77;;;1.03;;
71655;SDS011;59497;48.798;8.816;2023-12-20T05:13:35;3.30;;;2.80;;
71655;SDS011;59497;48.798;8.816;2023-12-20T05:16:01;1.60;;;0.90;;
71655;SDS011;59497;48.798;8.816;2023-12-20T05:18:26;0.60;;;0.40;;
71655;SDS011;59497;48.798;8.816;2023-12-20T05:20:51;0.33;;;0.30;;
71655;SDS011;59497;48.798;8.816;2023-12-20T05:23:16;0.80;;;0.50;;
71655;SDS011;59497;48.798;8.816;2023-12-20T05:25:42;6.67;;;0.87;;
71655;SDS011;59497;48.798;8.816;2023-12-20T05:28:07;0.30;;;0.20;;
71655;SDS011;59497;48.798;8.816;2023-12-20T05:30:32;0.30;;;0.20;;
71655;SDS011;59497;48.798;8.816;2023-12-20T05:32:57;1.23;;;1.13;;
71655;SDS011;59497;48.798;8.816;2023-12-20T05:35:23;0.40;;;0.37;;
71655;SDS011;59497;48.798;8.816;2023-12-20T05:37:48;0.60;;;0.20;;
71655;SDS011;59497;48.798;8.816;2023-12-20T05:40:13;0.57;;;0.40;;
71655;SDS011;59497;48.798;8.816;2023-12-20T05:42:39;1.00;;;0.87;;
71655;SDS011;59497;48.798;8.816;2023-12-20T05:45:04;0.80;;;0.65;;
71655;SDS011;59497;48.798;8.816;2023-12-20T05:47:30;1.83;;;1.40;;
71655;SDS011;59497;48.798;8.816;2023-12-20T05:49:55;1.20;;;0.70;;
71655;SDS011;59497;48.798;8.816;2023-12-20T05:52:20;1.07;;;0.87;;
71655;SDS011;59497;48.798;8.816;2023-12-20T05:54:46;0.68;;;0.50;;
71655;SDS011;59497;48.798;8.816;2023-12-20T05:57:12;1.00;;;0.50;;
71655;SDS011;59497;48.798;8.816;2023-12-20T05:59:37;0.30;;;0.20;;
71655;SDS011;59497;48.798;8.816;2023-12-20T06:02:03;0.60;;;0.30;;
71655;SDS011;59497;48.798;8.816;2023-12-20T06:04:28;0.38;;;0.30;;
71655;SDS011;59497;48.798;8.816;2023-12-20T06:06:54;0.43;;;0.30;;
71655;SDS011;59497;48.798;8.816;2023-12-20T06:09:19;0.33;;;0.03;;
71655;SDS011;59497;48.798;8.816;2023-12-20T06:11:44;0.30;;;0.20;;
71655;SDS011;59497;48.798;8.816;2023-12-20T06:14:09;0.20;;;0.20;;
71655;SDS011;59497;48.798;8.816;2023-12-20T06:16:35;0.13;;;0.13;;
71655;SDS011;59497;48.798;8.816;2023-12-20T06:19:00;0.30;;;0.20;;
71655;SDS011;59497;48.798;8.816;2023-12-20T06:21:25;0.30;;;0.20;;
71655;SDS011;59497;48.798;8.816;2023-12-20T06:23:50;0.50;;;0.40;;
71655;SDS011;59497;48.798;8.816;2023-12-20T06:26:16;0.90;;;0.57;;
71655;SDS011;59497;48.798;8.816;2023-12-20T06:28:41;3.63;;;1.73;;
71655;SDS011;59497;48.798;8.816;2023-12-20T06:31:06;0.83;;;0.50;;
71655;SDS011;59497;48.798;8.816;2023-12-20T06:33:31;0.73;;;0.40;;
71655;SDS011;59497;48.798;8.816;2023-12-20T06:35:57;0.60;;;0.40;;
71655;SDS011;59497;48.798;8.816;2023-12-20T06:38:22;1.80;;;1.00;;
71655;SDS011;59497;48.798;8.816;2023-12-20T06:40:47;0.70;;;0.43;;
71655;SDS011;59497;48.798;8.816;2023-12-20T06:43:13;1.80;;;0.63;;
71655;SDS011;59497;48.798;8.816;2023-12-20T06:45:38;1.00;;;0.80;;
71655;SDS011;59497;48.798;8.816;2023-12-20T06:48:04;1.20;;;0.80;;
71655;SDS011;59497;48.798;8.816;2023-12-20T06:50:29;1.03;;;0.63;;
71655;SDS011;59497;48.798;8.816;2023-12-20T06:52:54;1.83;;;1.43;;
71655;SDS011;59497;48.798;8.816;2023-12-20T06:55:19;1.13;;;0.60;;
71655;SDS011;59497;48.798;8.816;2023-12-20T06:57:45;1.40;;;0.80;;
71655;SDS011;59497;48.798;8.816;2023-12-20T07:00:10;1.20;;;0.93;;
71655;SDS011;59497;48.798;8.816;2023-12-20T07:02:36;1.30;;;0.95;;
71655;SDS011;59497;48.798;8.816;2023-12-20T07:05:01;1.83;;;1.07;;
71655;SDS011;59497;48.798;8.816;2023-12-20T07:07:26;2.03;;;1.60;;
71655;SDS011;59497;48.798;8.816;2023-12-20T07:09:52;2.20;;;1.33;;
71655;SDS011;59497;48.798;8.816;2023-12-20T07:12:17;2.90;;;1.50;;
71655;SDS011;59497;48.798;8.816;2023-12-20T07:14:44;2.20;;;1.70;;
71655;SDS011;59497;48.798;8.816;2023-12-20T07:17:10;2.90;;;2.10;;
71655;SDS011;59497;48.798;8.816;2023-12-20T07:19:37;3.08;;;2.22;;
71655;SDS011;59497;48.798;8.816;2023-12-20T07:22:02;2.72;;;1.80;;
71655;SDS011;59497;48.798;8.816;2023-12-20T07:24:27;3.47;;;2.07;;
71655;SDS011;59497;48.798;8.816;2023-12-20T07:26:53;3.03;;;1.87;;
71655;SDS011;59497;48.798;8.816;2023-12-20T07:29:18;2.40;;;1.77;;
71655;SDS011;59497;48.798;8.816;2023-12-20T07:31:43;4.27;;;2.07;;
71655;SDS011;59497;48.798;8.816;2023-12-20T07:34:08;3.93;;;2.10;;
71655;SDS011;59497;48.798;8.816;2023-12-20T07:36:34;5.27;;;2.70;;
71655;SDS011;59497;48.798;8.816;2023-12-20T07:38:59;3.20;;;2.17;;
71655;SDS011;59497;48.798;8.816;2023-12-20T07:41:24;4.33;;;3.00;;
71655;SDS011;59497;48.798;8.816;2023-12-20T07:43:49;4.20;;;2.50;;
71655;SDS011;59497;48.798;8.816;2023-12-20T07:46:14;3.87;;;2.20;;
71655;SDS011;59497;48.798;8.816;2023-12-20T07:48:40;3.87;;;3.20;;
71655;SDS011;59497;48.798;8.816;2023-12-20T07:51:06;3.90;;;2.92;;
71655;SDS011;59497;48.798;8.816;2023-12-20T07:53:33;3.92;;;2.92;;
71655;SDS011;59497;48.798;8.816;2023-12-20T07:55:58;3.27;;;2.67;;
71655;SDS011;59497;48.798;8.816;2023-12-20T07:58:23;3.90;;;2.37;;
71655;SDS011;59497;48.798;8.816;2023-12-20T08:00:48;3.03;;;2.27;;
71655;SDS011;59497;48.798;8.816;2023-12-20T08:03:14;3.43;;;2.17;;
71655;SDS011;59497;48.798;8.816;2023-12-20T08:05:39;2.73;;;1.67;;
71655;SDS011;59497;48.798;8.816;2023-12-20T08:08:07;5.18;;;2.75;;
71655;SDS011;59497;48.798;8.816;2023-12-20T08:10:32;2.83;;;1.93;;
71655;SDS011;59497;48.798;8.816;2023-12-20T08:12:58;5.40;;;2.03;;
71655;SDS011;59497;48.798;8.816;2023-12-20T08:15:23;2.93;;;1.87;;
71655;SDS011;59497;48.798;8.816;2023-12-20T08:17:48;2.90;;;1.83;;
71655;SDS011;59497;48.798;8.816;2023-12-20T08:20:15;2.85;;;1.38;;
71655;SDS011;59497;48.798;8.816;2023-12-20T08:22:41;4.33;;;2.30;;
71655;SDS011;59497;48.798;8.816;2023-12-20T08:25:06;3.47;;;2.20;;
71655;SDS011;59497;48.798;8.816;2023-12-20T08:27:31;3.03;;;1.90;;
71655;SDS011;59497;48.798;8.816;2023-12-20T08:29:57;3.07;;;1.23;;
71655;SDS011;59497;48.798;8.816;2023-12-20T08:32:24;2.73;;;1.50;;
71655;SDS011;59497;48.798;8.816;2023-12-20T08:34:49;3.30;;;1.63;;
71655;SDS011;59497;48.798;8.816;2023-12-20T08:37:15;3.78;;;1.30;;
71655;SDS011;59497;48.798;8.816;2023-12-20T08:39:40;5.90;;;1.70;;
71655;SDS011;59497;48.798;8.816;2023-12-20T08:42:06;3.63;;;1.77;;
71655;SDS011;59497;48.798;8.816;2023-12-20T08:44:31;2.13;;;1.37;;
71655;SDS011;59497;48.798;8.816;2023-12-20T08:46:56;3.03;;;0.83;;
71655;SDS011;59497;48.798;8.816;2023-12-20T08:49:22;4.75;;;1.60;;
71655;SDS011;59497;48.798;8.816;2023-12-20T08:51:47;3.50;;;1.60;;
71655;SDS011;59497;48.798;8.816;2023-12-20T08:54:12;8.90;;;3.40;;
71655;SDS011;59497;48.798;8.816;2023-12-20T08:56:38;2.60;;;1.07;;
71655;SDS011;59497;48.798;8.816;2023-12-20T08:59:03;3.80;;;1.00;;
71655;SDS011;59497;48.798;8.816;2023-12-20T09:01:28;3.37;;;1.10;;
71655;SDS011;59497;48.798;8.816;2023-12-20T09:03:53;3.07;;;1.53;;
71655;SDS011;59497;48.798;8.816;2023-12-20T09:06:19;4.57;;;0.93;;
71655;SDS011;59497;48.798;8.816;2023-12-20T09:08:44;4.93;;;1.20;;
71655;SDS011;59497;48.798;8.816;2023-12-20T09:11:09;4.80;;;0.97;;
71655;SDS011;59497;48.798;8.816;2023-12-20T09:13:35;2.78;;;1.00;;
71655;SDS011;59497;48.798;8.816;2023-12-20T09:16:00;4.33;;;1.20;;
71655;SDS011;59497;48.798;8.816;2023-12-20T09:18:25;3.33;;;1.10;;
71655;SDS011;59497;48.798;8.816;2023-12-20T09:20:51;3.37;;;1.03;;
71655;SDS011;59497;48.798;8.816;2023-12-20T09:23:16;3.13;;;0.70;;
71655;SDS011;59497;48.798;8.816;2023-12-20T09:25:43;2.90;;;0.95;;
71655;SDS011;59497;48.798;8.816;2023-12-20T09:28:08;2.47;;;0.60;;
71655;SDS011;59497;48.798;8.816;2023-12-20T09:30:33;3.20;;;0.97;;
71655;SDS011;59497;48.798;8.816;2023-12-20T09:33:00;2.50;;;0.82;;
71655;SDS011;59497;48.798;8.816;2023-12-20T09:35:25;2.80;;;1.03;;
71655;SDS011;59497;48.798;8.816;2023-12-20T09:37:51;1.67;;;0.70;;
71655;SDS011;59497;48.798;8.816;2023-12-20T09:40:17;2.67;;;0.60;;
71655;SDS011;59497;48.798;8.816;2023-12-20T09:42:48;2.40;;;0.75;;
71655;SDS011;59497;48.798;8.816;2023-12-20T09:45:16;2.25;;;0.85;;
71655;SDS011;59497;48.798;8.816;2023-12-20T09:47:44;7.05;;;2.60;;
71655;SDS011;59497;48.798;8.816;2023-12-20T09:50:10;5.53;;;1.50;;
71655;SDS011;59497;48.798;8.816;2023-12-20T09:52:36;2.23;;;1.70;;
71655;SDS011;59497;48.798;8.816;2023-12-20T09:55:01;5.43;;;2.30;;
71655;SDS011;59497;48.798;8.816;2023-12-20T09:57:30;2.38;;;1.63;;
71655;SDS011;59497;48.798;8.816;2023-12-20T09:59:55;2.13;;;0.70;;
71655;SDS011;59497;48.798;8.816;2023-12-20T10:02:21;3.33;;;1.07;;
71655;SDS011;59497;48.798;8.816;2023-12-20T10:04:48;2.07;;;0.60;;
71655;SDS011;59497;48.798;8.816;2023-12-20T10:07:14;4.07;;;0.97;;
71655;SDS011;59497;48.798;8.816;2023-12-20T10:09:39;3.35;;;1.27;;
71655;SDS011;59497;48.798;8.816;2023-12-20T10:12:05;2.77;;;1.20;;
71655;SDS011;59497;48.798;8.816;2023-12-20T10:14:32;5.05;;;2.63;;
71655;SDS011;59497;48.798;8.816;2023-12-20T10:17:04;2.27;;;0.80;;
71655;SDS011;59497;48.798;8.816;2023-12-20T10:19:29;4.63;;;1.15;;
71655;SDS011;59497;48.798;8.816;2023-12-20T10:21:54;2.80;;;1.03;;
71655;SDS011;59497;48.798;8.816;2023-12-20T10:24:19;5.00;;;0.97;;
71655;SDS011;59497;48.798;8.816;2023-12-20T10:26:45;2.60;;;0.60;;
71655;SDS011;59497;48.798;8.816;2023-12-20T10:29:10;2.73;;;0.93;;
71655;SDS011;59497;48.798;8.816;2023-12-20T10:31:36;3.53;;;1.23;;
71655;SDS011;59497;48.798;8.816;2023-12-20T10:34:03;4.55;;;1.10;;
71655;SDS011;59497;48.798;8.816;2023-12-20T10:36:29;2.80;;;0.80;;
71655;SDS011;59497;48.798;8.816;2023-12-20T10:38:55;1.90;;;0.65;;
71655;SDS011;59497;48.798;8.816;2023-12-20T10:41:26;2.28;;;0.63;;
71655;SDS011;59497;48.798;8.816;2023-12-20T10:43:52;4.20;;;1.10;;
71655;SDS011;59497;48.798;8.816;2023-12-20T10:46:19;3.87;;;0.90;;
71655;SDS011;59497;48.798;8.816;2023-12-20T10:48:44;5.88;;;1.58;;
71655;SDS011;59497;48.798;8.816;2023-12-20T10:51:10;6.37;;;1.47;;
71655;SDS011;59497;48.798;8.816;2023-12-20T10:53:36;2.50;;;1.13;;
71655;SDS011;59497;48.798;8.816;2023-12-20T10:56:01;2.33;;;0.90;;
71655;SDS011;59497;48.798;8.816;2023-12-20T10:58:27;3.10;;;0.98;;
71655;SDS011;59497;48.798;8.816;2023-12-20T11:00:57;2.22;;;1.05;;
71655;SDS011;59497;48.798;8.816;2023-12-20T11:03:24;4.77;;;0.97;;
71655;SDS011;59497;48.798;8.816;2023-12-20T11:05:58;2.65;;;0.80;;
71655;SDS011;59497;48.798;8.816;2023-12-20T11:08:32;4.30;;;1.30;;
71655;SDS011;59497;48.798;8.816;2023-12-20T11:13:34;5.38;;;1.05;;
71655;SDS011;59497;48.798;8.816;2023-12-20T11:16:01;3.87;;;0.70;;
71655;SDS011;59497;48.798;8.816;2023-12-20T11:18:28;4.65;;;1.13;;
71655;SDS011;59497;48.798;8.816;2023-12-20T11:20:53;7.60;;;0.68;;
71655;SDS011;59497;48.798;8.816;2023-12-20T11:23:19;1.40;;;0.60;;
71655;SDS011;59497;48.798;8.816;2023-12-20T11:25:48;5.23;;;1.30;;
71655;SDS011;59497;48.798;8.816;2023-12-20T11:28:13;2.45;;;0.90;;
71655;SDS011;59497;48.798;8.816;2023-12-20T11:30:50;2.03;;;1.30;;
71655;SDS011;59497;48.798;8.816;2023-12-20T11:33:15;3.88;;;1.35;;
71655;SDS011;59497;48.798;8.816;2023-12-20T11:35:41;3.63;;;1.15;;
71655;SDS011;59497;48.798;8.816;2023-12-20T11:38:07;4.03;;;0.97;;
71655;SDS011;59497;48.798;8.816;2023-12-20T11:40:33;3.13;;;1.20;;
71655;SDS011;59497;48.798;8.816;2023-12-20T11:42:59;2.22;;;1.10;;
71655;SDS011;59497;48.798;8.816;2023-12-20T11:45:24;3.57;;;1.60;;
71655;SDS011;59497;48.798;8.816;2023-12-20T11:47:51;4.97;;;1.40;;
71655;SDS011;59497;48.798;8.816;2023-12-20T11:50:18;3.80;;;1.10;;
71655;SDS011;59497;48.798;8.816;2023-12-20T11:52:44;2.40;;;1.30;;
71655;SDS011;59497;48.798;8.816;2023-12-20T11:55:09;3.50;;;1.17;;
71655;SDS011;59497;48.798;8.816;2023-12-20T11:57:35;3.20;;;1.30;;
71655;SDS011;59497;48.798;8.816;2023-12-20T12:00:01;3.17;;;1.23;;
71655;SDS011;59497;48.798;8.816;2023-12-20T12:02:26;3.07;;;1.37;;
71655;SDS011;59497;48.798;8.816;2023-12-20T12:04:51;6.17;;;1.40;;
71655;SDS011;59497;48.798;8.816;2023-12-20T12:07:17;4.37;;;1.67;;
71655;SDS011;59497;48.798;8.816;2023-12-20T12:09:42;3.42;;;1.02;;
71655;SDS011;59497;48.798;8.816;2023-12-20T12:12:08;3.27;;;0.67;;
71655;SDS011;59497;48.798;8.816;2023-12-20T12:14:33;2.50;;;0.70;;
71655;SDS011;59497;48.798;8.816;2023-12-20T12:17:00;5.40;;;1.30;;
71655;SDS011;59497;48.798;8.816;2023-12-20T12:19:26;4.13;;;0.63;;
71655;SDS011;59497;48.798;8.816;2023-12-20T12:22:03;2.45;;;0.98;;
71655;SDS011;59497;48.798;8.816;2023-12-20T12:24:29;4.25;;;1.08;;
71655;SDS011;59497;48.798;8.816;2023-12-20T12:26:56;2.80;;;0.80;;
71655;SDS011;59497;48.798;8.816;2023-12-20T12:29:22;5.03;;;1.42;;
71655;SDS011;59497;48.798;8.816;2023-12-20T12:31:47;2.37;;;0.53;;
71655;SDS011;59497;48.798;8.816;2023-12-20T12:34:13;4.63;;;0.80;;
71655;SDS011;59497;48.798;8.816;2023-12-20T12:36:39;3.53;;;1.07;;
71655;SDS011;59497;48.798;8.816;2023-12-20T12:39:04;3.47;;;1.10;;
71655;SDS011;59497;48.798;8.816;2023-12-20T12:41:30;4.60;;;0.93;;
71655;SDS011;59497;48.798;8.816;2023-12-20T12:43:55;5.67;;;0.50;;
71655;SDS011;59497;48.798;8.816;2023-12-20T12:46:20;4.57;;;1.20;;
71655;SDS011;59497;48.798;8.816;2023-12-20T12:48:46;3.88;;;0.73;;
71655;SDS011;59497;48.798;8.816;2023-12-20T12:51:11;2.87;;;0.83;;
71655;SDS011;59497;48.798;8.816;2023-12-20T12:53:38;5.38;;;0.80;;
71655;SDS011;59497;48.798;8.816;2023-12-20T12:56:03;3.70;;;0.97;;
71655;SDS011;59497;48.798;8.816;2023-12-20T12:58:29;8.17;;;1.40;;
71655;SDS011;59497;48.798;8.816;2023-12-20T13:00:54;3.07;;;0.90;;
71655;SDS011;59497;48.798;8.816;2023-12-20T13:03:20;1.08;;;0.43;;
71655;SDS011;59497;48.798;8.816;2023-12-20T13:05:45;2.00;;;0.70;;
71655;SDS011;59497;48.798;8.816;2023-12-20T13:08:12;2.65;;;1.20;;
71655;SDS011;59497;48.798;8.816;2023-12-20T13:10:38;2.80;;;0.90;;
71655;SDS011;59497;48.798;8.816;2023-12-20T13:13:03;3.40;;;1.10;;
71655;SDS011;59497;48.798;8.816;2023-12-20T13:15:29;2.07;;;0.80;;
71655;SDS011;59497;48.798;8.816;2023-12-20T13:17:55;2.72;;;0.60;;
71655;SDS011;59497;48.798;8.816;2023-12-20T13:20:20;3.57;;;0.63;;
71655;SDS011;59497;48.798;8.816;2023-12-20T13:22:47;5.05;;;1.20;;
71655;SDS011;59497;48.798;8.816;2023-12-20T13:25:12;2.50;;;0.60;;
71655;SDS011;59497;48.798;8.816;2023-12-20T13:27:38;2.93;;;0.70;;
71655;SDS011;59497;48.798;8.816;2023-12-20T13:30:03;1.67;;;0.90;;
71655;SDS011;59497;48.798;8.816;2023-12-20T13:32:28;3.42;;;1.20;;
71655;SDS011;59497;48.798;8.816;2023-12-20T13:34:54;7.07;;;1.13;;
71655;SDS011;59497;48.798;8.816;2023-12-20T13:37:19;7.10;;;0.90;;
71655;SDS011;59497;48.798;8.816;2023-12-20T13:39:44;2.57;;;1.07;;
71655;SDS011;59497;48.798;8.816;2023-12-20T13:42:09;7.37;;;1.67;;
71655;SDS011;59497;48.798;8.816;2023-12-20T13:44:35;22.60;;;7.13;;
71655;SDS011;59497;48.798;8.816;2023-12-20T13:47:00;6.77;;;3.03;;
71655;SDS011;59497;48.798;8.816;2023-12-20T13:49:26;2.10;;;1.10;;
71655;SDS011;59497;48.798;8.816;2023-12-20T13:51:53;6.83;;;3.40;;
71655;SDS011;59497;48.798;8.816;2023-12-20T13:54:19;4.57;;;1.25;;
71655;SDS011;59497;48.798;8.816;2023-12-20T13:56:47;2.10;;;0.60;;
71655;SDS011;59497;48.798;8.816;2023-12-20T13:59:12;5.27;;;1.20;;
71655;SDS011;59497;48.798;8.816;2023-12-20T14:01:38;3.80;;;0.75;;
71655;SDS011;59497;48.798;8.816;2023-12-20T14:04:04;8.33;;;1.30;;
71655;SDS011;59497;48.798;8.816;2023-12-20T14:06:29;4.93;;;1.00;;
71655;SDS011;59497;48.798;8.816;2023-12-20T14:08:54;4.03;;;1.17;;
71655;SDS011;59497;48.798;8.816;2023-12-20T14:11:20;2.97;;;1.43;;
71655;SDS011;59497;48.798;8.816;2023-12-20T14:13:45;4.40;;;0.93;;
71655;SDS011;59497;48.798;8.816;2023-12-20T14:16:10;3.17;;;1.20;;
71655;SDS011;59497;48.798;8.816;2023-12-20T14:18:36;3.87;;;1.03;;
71655;SDS011;59497;48.798;8.816;2023-12-20T14:21:01;2.53;;;0.80;;
71655;SDS011;59497;48.798;8.816;2023-12-20T14:23:26;10.07;;;1.40;;
71655;SDS011;59497;48.798;8.816;2023-12-20T14:25:51;5.47;;;1.00;;
71655;SDS011;59497;48.798;8.816;2023-12-20T14:28:16;3.87;;;1.03;;
71655;SDS011;59497;48.798;8.816;2023-12-20T14:30:42;8.23;;;0.87;;
71655;SDS011;59497;48.798;8.816;2023-12-20T14:33:07;2.33;;;0.83;;
71655;SDS011;59497;48.798;8.816;2023-12-20T14:35:33;2.97;;;0.80;;
71655;SDS011;59497;48.798;8.816;2023-12-20T14:37:58;4.27;;;0.53;;
71655;SDS011;59497;48.798;8.816;2023-12-20T14:40:23;4.53;;;0.90;;